createdAt,value
2019-06-10T00:01:25.967Z,13.50
2019-06-10T00:04:27.707Z,13.40
2019-06-10T00:07:31.459Z,13.50
2019-06-10T00:10:32.339Z,13.40
2019-06-10T00:13:33.689Z,13.40
2019-06-10T00:16:35.033Z,13.40
2019-06-10T00:19:36.389Z,13.30
2019-06-10T00:22:37.669Z,13.30
2019-06-10T00:25:41.484Z,13.20
2019-06-10T00:28:42.098Z,13.20
2019-06-10T00:31:43.355Z,13.20
2019-06-10T00:34:44.684Z,13.10
2019-06-10T00:37:45.926Z,13.10
2019-06-10T00:40:47.193Z,13.00
2019-06-10T00:43:48.446Z,12.90
2019-06-10T00:46:51.619Z,12.90
2019-06-10T00:49:52.786Z,13.00
2019-06-10T00:52:54.084Z,13.00
2019-06-10T00:55:55.317Z,12.90
2019-06-10T00:58:56.694Z,12.90
2019-06-10T01:01:57.933Z,12.80
2019-06-10T01:05:00.807Z,12.80
2019-06-10T01:08:02.980Z,12.70
2019-06-10T01:11:10.457Z,12.80
2019-06-10T01:14:07.459Z,12.80
2019-06-10T01:17:11.814Z,12.80
2019-06-10T01:20:14.427Z,12.80
2019-06-10T01:23:15.699Z,12.80
2019-06-10T01:26:18.333Z,12.80
2019-06-10T01:29:21.065Z,12.80
2019-06-10T01:32:22.784Z,12.80
2019-06-10T01:35:24.227Z,12.70
2019-06-10T01:38:25.457Z,12.60
2019-06-10T01:41:30.565Z,12.60
2019-06-10T01:44:33.972Z,12.50
2019-06-10T01:47:35.008Z,12.40
2019-06-10T01:50:36.257Z,12.30
2019-06-10T01:53:37.540Z,12.20
2019-06-10T01:56:40.870Z,12.20
2019-06-10T01:59:42.040Z,12.20
2019-06-10T02:02:44.884Z,12.10
2019-06-10T02:05:46.457Z,12.10
2019-06-10T02:08:47.818Z,12.10
2019-06-10T02:11:51.266Z,12.10
2019-06-10T02:14:55.321Z,12.10
2019-06-10T02:17:56.630Z,12.10
2019-06-10T02:21:00.716Z,12.00
2019-06-10T02:24:01.154Z,12.00
2019-06-10T02:27:02.491Z,12.10
2019-06-10T02:30:14.931Z,12.10
2019-06-10T02:33:12.002Z,12.10
2019-06-10T02:36:15.934Z,12.10
2019-06-10T02:39:20.125Z,12.20
2019-06-10T02:42:30.100Z,12.30
2019-06-10T02:45:32.689Z,12.30
2019-06-10T02:48:30.538Z,12.40
2019-06-10T02:51:35.439Z,12.50
2019-06-10T02:54:35.882Z,12.50
2019-06-10T02:57:40.424Z,12.60
2019-06-10T03:00:48.012Z,12.60
2019-06-10T03:03:48.956Z,12.70
2019-06-10T03:06:46.738Z,12.70
2019-06-10T03:09:48.066Z,12.80
2019-06-10T03:12:49.417Z,12.90
2019-06-10T03:15:52.653Z,13.00
2019-06-10T03:18:54.037Z,13.10
2019-06-10T03:21:55.270Z,13.30
2019-06-10T03:24:56.930Z,13.40
2019-06-10T03:27:58.169Z,13.60
2019-06-10T03:30:59.562Z,13.80
2019-06-10T03:34:04.452Z,14.00
2019-06-10T03:37:04.081Z,14.20
2019-06-10T03:40:05.622Z,14.50
2019-06-10T03:43:08.791Z,14.70
2019-06-10T03:46:29.890Z,14.80
2019-06-10T03:49:32.175Z,15.00
2019-06-10T03:52:33.510Z,15.20
2019-06-10T03:55:34.884Z,15.40
2019-06-10T03:58:36.221Z,15.60
2019-06-10T04:01:37.493Z,15.80
2019-06-10T04:04:38.812Z,16.00
2019-06-10T04:07:42.694Z,16.20
2019-06-10T04:10:43.569Z,16.30
2019-06-10T04:13:48.020Z,16.50
2019-06-10T04:16:49.214Z,16.70
2019-06-10T04:20:07.584Z,16.80
2019-06-10T04:22:55.440Z,17.00
2019-06-10T04:25:56.754Z,17.10
2019-06-10T04:28:57.998Z,17.20
2019-06-10T04:32:03.072Z,17.40
2019-06-10T04:35:04.623Z,17.60
2019-06-10T04:38:05.933Z,17.70
2019-06-10T04:41:07.169Z,17.90
2019-06-10T04:44:08.446Z,18.20
2019-06-10T04:47:11.935Z,18.50
2019-06-10T04:50:24.003Z,18.60
2019-06-10T04:53:16.061Z,18.80
2019-06-10T04:56:17.329Z,19.00
2019-06-10T04:59:18.878Z,19.10
2019-06-10T05:02:23.788Z,19.20
2019-06-10T05:05:25.282Z,19.40
2019-06-10T05:08:27.902Z,19.50
2019-06-10T05:11:30.844Z,19.60
2019-06-10T05:14:33.558Z,19.80
2019-06-10T05:17:35.017Z,20.00
2019-06-10T05:20:51.207Z,20.30
2019-06-10T05:23:39.502Z,20.60
2019-06-10T05:26:42.824Z,20.80
2019-06-10T05:29:44.539Z,21.00
2019-06-10T05:32:46.073Z,20.90
2019-06-10T05:35:47.730Z,20.90
2019-06-10T05:38:52.569Z,20.90
2019-06-10T05:41:53.960Z,20.80
2019-06-10T05:44:55.325Z,20.90
2019-06-10T05:47:56.684Z,21.20
2019-06-10T05:51:02.929Z,21.40
2019-06-10T05:54:02.166Z,21.60
2019-06-10T05:57:03.629Z,21.90
2019-06-10T06:00:13.905Z,22.20
2019-06-10T06:03:12.062Z,22.30
2019-06-10T06:06:13.415Z,22.20
2019-06-10T06:09:14.903Z,22.30
2019-06-10T06:12:16.238Z,22.20
2019-06-10T06:15:18.145Z,22.20
2019-06-10T06:18:19.384Z,22.20
2019-06-10T06:21:29.553Z,22.20
2019-06-10T06:24:23.690Z,22.30
2019-06-10T06:27:24.957Z,22.40
2019-06-10T06:30:26.513Z,22.40
2019-06-10T06:33:29.319Z,22.30
2019-06-10T06:36:33.318Z,22.40
2019-06-10T06:39:35.504Z,22.50
2019-06-10T06:42:38.348Z,22.50
2019-06-10T06:45:42.607Z,22.60
2019-06-10T06:48:44.567Z,22.70
2019-06-10T06:51:54.909Z,22.80
2019-06-10T06:54:49.230Z,22.90
2019-06-10T06:57:52.842Z,23.10
2019-06-10T07:01:04.444Z,23.20
2019-06-10T07:03:57.498Z,23.30
2019-06-10T07:07:02.546Z,23.40
2019-06-10T07:10:06.933Z,23.50
2019-06-10T07:13:12.767Z,23.40
2019-06-10T07:16:13.213Z,23.40
2019-06-10T07:19:16.762Z,23.50
2019-06-10T07:22:18.097Z,23.70
2019-06-10T07:25:19.385Z,23.90
2019-06-10T07:28:22.902Z,23.90
2019-06-10T07:31:27.685Z,24.00
2019-06-10T07:34:26.813Z,24.10
2019-06-10T07:37:28.404Z,24.30
2019-06-10T07:40:30.046Z,24.40
2019-06-10T07:43:32.879Z,24.70
2019-06-10T07:46:36.061Z,25.00
2019-06-10T07:49:37.475Z,25.00
2019-06-10T07:52:39.333Z,25.10
2019-06-10T07:55:42.154Z,25.30
2019-06-10T07:58:47.500Z,25.20
2019-06-10T08:01:51.346Z,25.30
2019-06-10T08:04:53.893Z,25.20
2019-06-10T08:07:54.733Z,25.20
2019-06-10T08:10:56.286Z,25.40
2019-06-10T08:13:57.503Z,25.50
2019-06-10T08:16:58.894Z,25.70
2019-06-10T08:20:02.415Z,25.80
2019-06-10T08:23:03.682Z,25.90
2019-06-10T08:26:05.160Z,26.00
2019-06-10T08:29:06.626Z,26.20
2019-06-10T08:32:09.787Z,26.10
2019-06-10T08:35:12.842Z,26.20
2019-06-10T08:38:15.672Z,26.30
2019-06-10T08:41:17.121Z,26.30
2019-06-10T08:44:19.146Z,26.40
2019-06-10T08:47:22.818Z,26.50
2019-06-10T08:50:24.798Z,26.50
2019-06-10T08:53:28.497Z,26.90
2019-06-10T08:56:32.806Z,27.10
2019-06-10T08:59:35.966Z,27.20
2019-06-10T09:02:45.221Z,27.10
2019-06-10T09:05:49.056Z,27.00
2019-06-10T09:08:49.911Z,27.00
2019-06-10T09:11:54.470Z,27.20
2019-06-10T09:14:54.409Z,27.40
2019-06-10T09:17:56.467Z,27.70
2019-06-10T09:20:58.085Z,27.90
2019-06-10T09:24:01.247Z,27.90
2019-06-10T09:27:03.041Z,28.00
2019-06-10T09:30:09.417Z,28.00
2019-06-10T09:33:12.855Z,28.10
2019-06-10T09:36:13.958Z,28.10
2019-06-10T09:39:15.390Z,28.30
2019-06-10T09:42:16.910Z,28.20
2019-06-10T09:45:18.479Z,28.30
2019-06-10T09:48:22.931Z,28.50
2019-06-10T09:51:26.909Z,28.40
2019-06-10T09:54:28.389Z,27.90
2019-06-10T09:57:32.022Z,27.80
2019-06-10T10:00:56.976Z,27.70
2019-06-10T10:03:59.865Z,27.90
2019-06-10T10:06:57.626Z,28.20
2019-06-10T10:09:59.187Z,28.20
2019-06-10T10:13:02.714Z,28.50
2019-06-10T10:16:07.317Z,28.80
2019-06-10T10:19:08.695Z,28.80
2019-06-10T10:22:11.689Z,28.90
2019-06-10T10:25:14.404Z,28.70
2019-06-10T10:28:15.873Z,28.90
2019-06-10T10:31:17.395Z,29.10
2019-06-10T10:34:22.436Z,29.50
2019-06-10T10:37:24.912Z,29.40
2019-06-10T10:40:26.595Z,29.60
2019-06-10T10:43:33.263Z,29.50
2019-06-10T10:46:33.216Z,29.20
2019-06-10T10:49:34.577Z,29.20
2019-06-10T10:52:37.761Z,29.60
2019-06-10T10:55:38.933Z,29.60
2019-06-10T10:58:40.177Z,30.10
2019-06-10T11:01:42.758Z,30.10
2019-06-10T11:04:46.242Z,29.50
2019-06-10T11:07:49.868Z,29.60
2019-06-10T11:10:56.975Z,30.10
2019-06-10T11:13:58.511Z,30.70
2019-06-10T11:16:59.901Z,31.10
2019-06-10T11:20:03.697Z,31.40
2019-06-10T11:23:04.648Z,30.80
2019-06-10T11:26:06.028Z,30.40
2019-06-10T11:29:07.766Z,30.30
2019-06-10T11:32:09.048Z,30.80
2019-06-10T11:35:12.148Z,31.80
2019-06-10T11:38:14.122Z,32.30
2019-06-10T11:41:16.290Z,32.00
2019-06-10T11:44:19.738Z,31.90
2019-06-10T11:47:22.817Z,31.60
2019-06-10T11:50:24.425Z,31.30
2019-06-10T11:53:28.725Z,31.60
2019-06-10T11:56:28.985Z,31.50
2019-06-10T11:59:32.602Z,32.10
2019-06-10T12:02:33.414Z,32.70
2019-06-10T12:05:35.286Z,33.00
2019-06-10T12:08:37.058Z,33.60
2019-06-10T12:11:38.337Z,33.10
2019-06-10T12:14:43.143Z,32.90
2019-06-10T12:17:50.800Z,33.50
2019-06-10T12:20:47.667Z,33.70
2019-06-10T12:23:49.720Z,34.10
2019-06-10T12:26:55.239Z,33.60
2019-06-10T12:29:56.682Z,33.50
2019-06-10T12:32:59.457Z,34.50
2019-06-10T12:36:07.082Z,35.20
2019-06-10T12:39:10.853Z,35.40
2019-06-10T12:42:15.847Z,35.60
2019-06-10T12:45:20.310Z,35.10
2019-06-10T12:48:23.450Z,35.20
2019-06-10T12:51:24.752Z,35.10
2019-06-10T12:54:26.502Z,35.20
2019-06-10T12:57:32.422Z,35.50
2019-06-10T13:00:39.423Z,35.10
2019-06-10T13:03:43.263Z,35.00
2019-06-10T13:06:52.565Z,34.90
2019-06-10T13:09:57.636Z,35.00
2019-06-10T13:13:00.229Z,35.40
2019-06-10T13:16:06.606Z,35.40
2019-06-10T13:19:07.935Z,35.70
2019-06-10T13:22:09.319Z,35.90
2019-06-10T13:25:13.235Z,36.00
2019-06-10T13:28:13.694Z,36.30
2019-06-10T13:31:15.612Z,35.50
2019-06-10T13:34:17.101Z,35.90
2019-06-10T13:37:18.389Z,35.60
2019-06-10T13:40:22.578Z,35.80
2019-06-10T13:43:24.033Z,36.00
2019-06-10T13:46:25.672Z,36.00
2019-06-10T13:49:28.680Z,35.70
2019-06-10T13:52:32.237Z,34.90
2019-06-10T13:55:35.542Z,34.60
2019-06-10T13:58:36.872Z,34.20
2019-06-10T14:01:38.453Z,33.90
2019-06-10T14:04:40.242Z,34.20
2019-06-10T14:07:43.496Z,33.90
2019-06-10T14:10:45.525Z,33.80
2019-06-10T14:13:46.891Z,32.90
2019-06-10T14:16:54.002Z,33.70
2019-06-10T14:19:54.285Z,34.20
2019-06-10T14:22:55.748Z,34.80
2019-06-10T14:25:57.797Z,34.60
2019-06-10T14:28:59.380Z,34.20
2019-06-10T14:32:02.666Z,34.70
2019-06-10T14:35:07.021Z,34.90
2019-06-10T14:38:10.056Z,35.00
2019-06-10T14:41:12.753Z,34.20
2019-06-10T14:44:17.735Z,33.50
2019-06-10T14:47:17.489Z,34.00
2019-06-10T14:50:19.077Z,34.90
2019-06-10T14:53:22.913Z,35.30
2019-06-10T14:56:23.803Z,35.30
2019-06-10T14:59:25.329Z,35.90
2019-06-10T15:02:26.724Z,35.30
2019-06-10T15:05:28.634Z,36.40
2019-06-10T15:08:32.130Z,36.80
2019-06-10T15:11:36.310Z,37.00
2019-06-10T15:14:42.746Z,37.40
2019-06-10T15:17:45.529Z,38.30
2019-06-10T15:20:47.451Z,38.60
2019-06-10T15:23:48.685Z,39.60
2019-06-10T15:27:05.949Z,39.60
2019-06-10T15:29:54.324Z,40.10
2019-06-10T15:32:57.845Z,39.70
2019-06-10T15:36:02.354Z,38.80
2019-06-10T15:39:06.358Z,39.60
2019-06-10T15:42:11.497Z,38.20
2019-06-10T15:45:18.026Z,38.70
2019-06-10T15:48:25.106Z,39.10
2019-06-10T15:51:26.179Z,39.80
2019-06-10T15:54:26.631Z,39.80
2019-06-10T15:57:39.538Z,39.90
2019-06-10T16:00:34.151Z,39.30
2019-06-10T16:03:34.682Z,38.10
2019-06-10T16:06:35.942Z,37.60
2019-06-10T16:09:37.236Z,37.60
2019-06-10T16:12:38.644Z,37.90
2019-06-10T16:15:39.932Z,38.30
2019-06-10T16:18:42.327Z,37.60
2019-06-10T16:21:44.440Z,37.90
2019-06-10T16:24:45.817Z,37.50
2019-06-10T16:27:51.024Z,37.40
2019-06-10T16:30:53.315Z,37.90
2019-06-10T16:33:54.578Z,37.80
2019-06-10T16:36:55.998Z,38.00
2019-06-10T16:39:57.482Z,37.80
2019-06-10T16:42:59.802Z,38.10
2019-06-10T16:46:03.306Z,37.40
2019-06-10T16:49:05.546Z,37.70
2019-06-10T16:52:06.983Z,37.10
2019-06-10T16:55:08.837Z,36.90
2019-06-10T16:58:10.021Z,36.70
2019-06-10T17:01:12.439Z,36.70
2019-06-10T17:04:14.161Z,37.00
2019-06-10T17:07:15.418Z,36.10
2019-06-10T17:10:17.594Z,36.20
2019-06-10T17:13:23.558Z,35.90
2019-06-10T17:16:26.107Z,35.30
2019-06-10T17:19:29.962Z,33.70
2019-06-10T17:22:33.411Z,32.70
2019-06-10T17:25:34.327Z,31.80
2019-06-10T17:28:36.816Z,31.00
2019-06-10T17:31:39.381Z,30.40
2019-06-10T17:34:42.344Z,29.90
2019-06-10T17:37:43.631Z,29.50
2019-06-10T17:40:45.358Z,28.80
2019-06-10T17:43:46.846Z,28.60
2019-06-10T17:46:48.283Z,28.00
2019-06-10T17:49:50.569Z,27.90
2019-06-10T17:52:53.410Z,27.60
2019-06-10T17:55:54.952Z,27.20
2019-06-10T17:58:58.112Z,26.90
2019-06-10T18:01:59.621Z,27.00
2019-06-10T18:05:03.214Z,27.20
2019-06-10T18:08:04.787Z,27.00
2019-06-10T18:11:06.325Z,26.70
2019-06-10T18:14:07.795Z,26.40
2019-06-10T18:17:12.808Z,26.10
2019-06-10T18:20:15.064Z,25.90
2019-06-10T18:23:16.722Z,25.70
2019-06-10T18:26:18.261Z,25.50
2019-06-10T18:29:19.515Z,25.40
2019-06-10T18:32:22.844Z,25.20
2019-06-10T18:35:25.822Z,25.10
2019-06-10T18:38:27.376Z,25.00
2019-06-10T18:41:28.621Z,24.90
2019-06-10T18:44:32.665Z,24.70
2019-06-10T18:47:36.100Z,24.60
2019-06-10T18:50:39.384Z,24.50
2019-06-10T18:53:43.609Z,24.40
2019-06-10T18:56:45.673Z,24.30
2019-06-10T18:59:47.382Z,24.20
2019-06-10T19:02:49.243Z,24.10
2019-06-10T19:05:52.787Z,24.10
2019-06-10T19:08:53.751Z,24.00
2019-06-10T19:12:02.757Z,23.90
2019-06-10T19:15:05.193Z,23.80
2019-06-10T19:18:06.891Z,23.70
2019-06-10T19:21:12.560Z,23.60
2019-06-10T19:24:17.522Z,23.60
2019-06-10T19:27:19.001Z,23.50
2019-06-10T19:30:23.148Z,23.50
2019-06-10T19:33:23.975Z,23.40
2019-06-10T19:36:28.132Z,23.30
2019-06-10T19:39:29.849Z,23.20
2019-06-10T19:42:34.510Z,23.30
2019-06-10T19:45:38.459Z,23.30
2019-06-10T19:48:55.473Z,23.30
2019-06-10T19:51:49.801Z,23.30
2019-06-10T19:54:55.926Z,23.30
2019-06-10T19:57:57.963Z,23.20
2019-06-10T20:01:00.044Z,23.20
2019-06-10T20:04:07.619Z,23.10
2019-06-10T20:07:12.836Z,22.90
2019-06-10T20:10:15.009Z,22.90
2019-06-10T20:13:18.171Z,22.80
2019-06-10T20:16:24.670Z,22.70
2019-06-10T20:19:26.463Z,22.70
2019-06-10T20:22:32.056Z,22.70
2019-06-10T20:25:33.405Z,22.70
2019-06-10T20:28:34.962Z,22.60
2019-06-10T20:31:36.410Z,22.60
2019-06-10T20:34:39.302Z,22.60
2019-06-10T20:37:44.283Z,22.50
2019-06-10T20:40:48.761Z,22.40
2019-06-10T20:43:55.058Z,22.40
2019-06-10T20:46:54.032Z,22.30
2019-06-10T20:49:56.285Z,22.30
2019-06-10T20:53:11.844Z,22.10
2019-06-10T20:56:03.749Z,22.00
2019-06-10T20:59:06.174Z,21.90
2019-06-10T21:02:07.971Z,21.80
2019-06-10T21:05:10.441Z,21.70
2019-06-10T21:08:14.179Z,21.70
2019-06-10T21:11:15.488Z,21.60
2019-06-10T21:14:17.402Z,21.60
2019-06-10T21:17:22.822Z,21.50
2019-06-10T21:20:25.071Z,21.40
2019-06-10T21:23:28.862Z,21.30
2019-06-10T21:26:32.360Z,21.30
2019-06-10T21:29:35.107Z,21.30
2019-06-10T21:32:36.621Z,21.20
2019-06-10T21:35:38.145Z,21.10
2019-06-10T21:38:39.568Z,21.00
2019-06-10T21:41:43.450Z,21.00
2019-06-10T21:44:43.979Z,20.90
2019-06-10T21:47:45.900Z,20.80
2019-06-10T21:50:49.799Z,20.80
2019-06-10T21:53:53.737Z,20.70
2019-06-10T21:56:55.616Z,20.60
2019-06-10T21:59:57.229Z,20.50
2019-06-10T22:02:58.907Z,20.50
2019-06-10T22:06:00.303Z,20.40
2019-06-10T22:09:04.029Z,20.40
2019-06-10T22:12:04.837Z,20.30
2019-06-10T22:15:12.291Z,20.30
2019-06-10T22:18:15.236Z,20.20
2019-06-10T22:21:16.749Z,20.20
2019-06-10T22:24:18.053Z,20.10
2019-06-10T22:27:19.297Z,20.00
2019-06-10T22:30:22.766Z,19.90
2019-06-10T22:33:24.166Z,19.80
2019-06-10T22:36:25.392Z,19.70
2019-06-10T22:39:28.821Z,19.60
2019-06-10T22:42:30.116Z,19.60
2019-06-10T22:45:32.320Z,19.50
2019-06-10T22:48:33.843Z,19.40
2019-06-10T22:51:35.203Z,19.40
2019-06-10T22:54:36.549Z,19.30
2019-06-10T22:57:37.780Z,19.20
2019-06-10T23:00:39.075Z,19.20
2019-06-10T23:03:40.872Z,19.10
2019-06-10T23:06:42.134Z,19.10
2019-06-10T23:09:48.622Z,19.00
2019-06-10T23:12:51.299Z,19.00
2019-06-10T23:15:53.957Z,18.90
2019-06-10T23:18:58.423Z,18.90
2019-06-10T23:22:02.950Z,18.90
2019-06-10T23:25:05.318Z,18.90
2019-06-10T23:28:06.570Z,18.80
2019-06-10T23:31:08.282Z,18.90
2019-06-10T23:34:15.999Z,18.90
2019-06-10T23:37:14.770Z,18.90
2019-06-10T23:40:16.001Z,18.80
2019-06-10T23:43:22.334Z,18.80
2019-06-10T23:46:22.920Z,18.80
2019-06-10T23:49:24.181Z,18.80
2019-06-10T23:52:25.434Z,18.80
2019-06-10T23:55:27.078Z,18.70
2019-06-10T23:58:28.338Z,18.70
